sensor_id;sensor_type;location;lat;lon;timestamp;temperature;humidity
45008;DHT22;30743;52.008;5.644;2023-08-31T00:00:43;17.60;99.90
45008;DHT22;30743;52.008;5.644;2023-08-31T00:03:10;17.60;99.90
45008;DHT22;30743;52.008;5.644;2023-08-31T00:05:43;17.60;99.90
45008;DHT22;30743;52.008;5.644;2023-08-31T00:08:09;17.60;99.90
45008;DHT22;30743;52.008;5.644;2023-08-31T00:10:36;17.50;99.90
45008;DHT22;30743;52.008;5.644;2023-08-31T00:13:03;17.30;99.90
45008;DHT22;30743;52.008;5.644;2023-08-31T00:15:29;17.20;99.90
45008;DHT22;30743;52.008;5.644;2023-08-31T00:17:54;17.00;99.90
45008;DHT22;30743;52.008;5.644;2023-08-31T00:20:20;16.90;99.90
45008;DHT22;30743;52.008;5.644;2023-08-31T00:22:47;16.80;99.90
45008;DHT22;30743;52.008;5.644;2023-08-31T00:25:12;16.60;99.90
45008;DHT22;30743;52.008;5.644;2023-08-31T00:27:38;16.50;99.90
45008;DHT22;30743;52.008;5.644;2023-08-31T00:30:07;16.40;99.90
45008;DHT22;30743;52.008;5.644;2023-08-31T00:32:39;16.40;99.90
45008;DHT22;30743;52.008;5.644;2023-08-31T00:35:05;16.50;99.90
45008;DHT22;30743;52.008;5.644;2023-08-31T00:37:31;16.60;99.90
45008;DHT22;30743;52.008;5.644;2023-08-31T00:39:56;16.60;99.90
45008;DHT22;30743;52.008;5.644;2023-08-31T00:42:22;16.60;99.90
45008;DHT22;30743;52.008;5.644;2023-08-31T00:44:48;16.60;99.90
45008;DHT22;30743;52.008;5.644;2023-08-31T00:47:14;16.70;99.90
45008;DHT22;30743;52.008;5.644;2023-08-31T00:49:41;16.70;99.90
45008;DHT22;30743;52.008;5.644;2023-08-31T00:52:06;16.80;99.90
45008;DHT22;30743;52.008;5.644;2023-08-31T00:54:33;16.80;99.90
45008;DHT22;30743;52.008;5.644;2023-08-31T00:56:59;16.80;99.90
45008;DHT22;30743;52.008;5.644;2023-08-31T00:59:25;16.80;99.90
45008;DHT22;30743;52.008;5.644;2023-08-31T01:02:06;16.80;99.90
45008;DHT22;30743;52.008;5.644;2023-08-31T01:07:34;17.00;99.90
45008;DHT22;30743;52.008;5.644;2023-08-31T01:10:18;17.00;99.90
45008;DHT22;30743;52.008;5.644;2023-08-31T01:12:54;17.00;99.90
45008;DHT22;30743;52.008;5.644;2023-08-31T01:15:21;17.00;99.90
45008;DHT22;30743;52.008;5.644;2023-08-31T01:17:49;17.10;99.90
45008;DHT22;30743;52.008;5.644;2023-08-31T01:20:19;17.20;99.90
45008;DHT22;30743;52.008;5.644;2023-08-31T01:23:02;17.30;99.90
45008;DHT22;30743;52.008;5.644;2023-08-31T01:25:30;17.30;99.90
45008;DHT22;30743;52.008;5.644;2023-08-31T01:27:59;17.20;99.90
45008;DHT22;30743;52.008;5.644;2023-08-31T01:30:24;17.20;99.90
45008;DHT22;30743;52.008;5.644;2023-08-31T01:32:50;17.10;99.90
45008;DHT22;30743;52.008;5.644;2023-08-31T01:35:19;17.00;99.90
45008;DHT22;30743;52.008;5.644;2023-08-31T01:37:51;16.80;99.90
45008;DHT22;30743;52.008;5.644;2023-08-31T01:40:25;16.80;99.90
45008;DHT22;30743;52.008;5.644;2023-08-31T01:42:54;16.90;99.90
45008;DHT22;30743;52.008;5.644;2023-08-31T01:45:21;17.00;99.90
45008;DHT22;30743;52.008;5.644;2023-08-31T01:47:48;17.00;99.90
45008;DHT22;30743;52.008;5.644;2023-08-31T01:50:13;17.10;99.90
45008;DHT22;30743;52.008;5.644;2023-08-31T01:52:39;17.00;99.90
45008;DHT22;30743;52.008;5.644;2023-08-31T01:55:05;16.90;99.90
45008;DHT22;30743;52.008;5.644;2023-08-31T01:57:31;16.90;99.90
45008;DHT22;30743;52.008;5.644;2023-08-31T01:59:58;17.10;99.90
45008;DHT22;30743;52.008;5.644;2023-08-31T02:02:23;17.10;99.90
45008;DHT22;30743;52.008;5.644;2023-08-31T02:04:49;17.20;99.90
45008;DHT22;30743;52.008;5.644;2023-08-31T02:07:16;17.10;99.90
45008;DHT22;30743;52.008;5.644;2023-08-31T02:09:42;17.10;99.90
45008;DHT22;30743;52.008;5.644;2023-08-31T02:12:07;17.30;99.90
45008;DHT22;30743;52.008;5.644;2023-08-31T02:14:35;17.30;99.90
45008;DHT22;30743;52.008;5.644;2023-08-31T02:17:00;17.40;99.90
45008;DHT22;30743;52.008;5.644;2023-08-31T02:19:26;17.20;99.90
45008;DHT22;30743;52.008;5.644;2023-08-31T02:21:51;17.30;99.90
45008;DHT22;30743;52.008;5.644;2023-08-31T02:24:17;17.30;99.90
45008;DHT22;30743;52.008;5.644;2023-08-31T02:26:42;17.30;99.90
45008;DHT22;30743;52.008;5.644;2023-08-31T02:29:08;17.40;99.90
45008;DHT22;30743;52.008;5.644;2023-08-31T02:31:33;17.40;99.90
45008;DHT22;30743;52.008;5.644;2023-08-31T02:33:59;17.20;99.90
45008;DHT22;30743;52.008;5.644;2023-08-31T02:36:24;17.10;99.90
45008;DHT22;30743;52.008;5.644;2023-08-31T02:38:50;17.20;99.90
45008;DHT22;30743;52.008;5.644;2023-08-31T02:41:16;19.00;99.90
45008;DHT22;30743;52.008;5.644;2023-08-31T02:43:42;17.40;99.90
45008;DHT22;30743;52.008;5.644;2023-08-31T02:46:08;17.30;99.90
45008;DHT22;30743;52.008;5.644;2023-08-31T02:48:33;17.30;99.90
45008;DHT22;30743;52.008;5.644;2023-08-31T02:50:59;17.30;99.90
45008;DHT22;30743;52.008;5.644;2023-08-31T02:53:32;17.30;99.90
45008;DHT22;30743;52.008;5.644;2023-08-31T02:55:57;17.50;99.90
45008;DHT22;30743;52.008;5.644;2023-08-31T02:58:23;17.70;99.90
45008;DHT22;30743;52.008;5.644;2023-08-31T03:00:48;17.90;99.90
45008;DHT22;30743;52.008;5.644;2023-08-31T03:03:17;17.90;99.90
45008;DHT22;30743;52.008;5.644;2023-08-31T03:05:43;17.90;99.90
45008;DHT22;30743;52.008;5.644;2023-08-31T03:08:09;17.90;99.90
45008;DHT22;30743;52.008;5.644;2023-08-31T03:10:35;17.70;99.90
45008;DHT22;30743;52.008;5.644;2023-08-31T03:13:01;17.90;99.90
45008;DHT22;30743;52.008;5.644;2023-08-31T03:15:26;17.90;99.90
45008;DHT22;30743;52.008;5.644;2023-08-31T03:17:52;17.70;99.90
45008;DHT22;30743;52.008;5.644;2023-08-31T03:20:17;17.70;99.90
45008;DHT22;30743;52.008;5.644;2023-08-31T03:22:43;17.80;99.90
45008;DHT22;30743;52.008;5.644;2023-08-31T03:25:08;17.80;99.90
45008;DHT22;30743;52.008;5.644;2023-08-31T03:27:34;17.80;99.90
45008;DHT22;30743;52.008;5.644;2023-08-31T03:30:01;17.80;99.90
45008;DHT22;30743;52.008;5.644;2023-08-31T03:32:26;17.90;99.90
45008;DHT22;30743;52.008;5.644;2023-08-31T03:34:52;18.10;99.90
45008;DHT22;30743;52.008;5.644;2023-08-31T03:37:17;18.10;99.90
45008;DHT22;30743;52.008;5.644;2023-08-31T03:39:43;18.00;99.90
45008;DHT22;30743;52.008;5.644;2023-08-31T03:42:09;17.90;99.90
45008;DHT22;30743;52.008;5.644;2023-08-31T03:44:35;17.90;99.90
45008;DHT22;30743;52.008;5.644;2023-08-31T03:47:02;17.90;99.90
45008;DHT22;30743;52.008;5.644;2023-08-31T03:49:28;18.00;99.90
45008;DHT22;30743;52.008;5.644;2023-08-31T03:51:53;18.00;99.90
45008;DHT22;30743;52.008;5.644;2023-08-31T03:54:20;18.10;99.90
45008;DHT22;30743;52.008;5.644;2023-08-31T03:56:45;18.00;99.90
45008;DHT22;30743;52.008;5.644;2023-08-31T03:59:12;17.90;99.90
45008;DHT22;30743;52.008;5.644;2023-08-31T04:01:38;18.00;99.90
45008;DHT22;30743;52.008;5.644;2023-08-31T04:04:03;18.00;99.90
45008;DHT22;30743;52.008;5.644;2023-08-31T04:06:29;17.90;99.90
45008;DHT22;30743;52.008;5.644;2023-08-31T04:08:55;18.10;99.90
45008;DHT22;30743;52.008;5.644;2023-08-31T04:11:21;18.00;99.90
45008;DHT22;30743;52.008;5.644;2023-08-31T04:13:47;17.90;99.90
45008;DHT22;30743;52.008;5.644;2023-08-31T04:16:12;17.90;99.90
45008;DHT22;30743;52.008;5.644;2023-08-31T04:18:38;18.00;99.90
45008;DHT22;30743;52.008;5.644;2023-08-31T04:21:03;18.00;99.90
45008;DHT22;30743;52.008;5.644;2023-08-31T04:23:29;17.90;99.90
45008;DHT22;30743;52.008;5.644;2023-08-31T04:25:55;18.00;99.90
45008;DHT22;30743;52.008;5.644;2023-08-31T04:28:23;18.10;99.90
45008;DHT22;30743;52.008;5.644;2023-08-31T04:30:49;18.00;99.90
45008;DHT22;30743;52.008;5.644;2023-08-31T04:33:14;18.00;99.90
45008;DHT22;30743;52.008;5.644;2023-08-31T04:35:40;17.90;99.90
45008;DHT22;30743;52.008;5.644;2023-08-31T04:38:05;18.00;99.90
45008;DHT22;30743;52.008;5.644;2023-08-31T04:40:31;18.10;99.90
45008;DHT22;30743;52.008;5.644;2023-08-31T04:42:56;18.00;99.90
45008;DHT22;30743;52.008;5.644;2023-08-31T04:45:22;18.30;99.90
45008;DHT22;30743;52.008;5.644;2023-08-31T04:47:48;18.20;99.90
45008;DHT22;30743;52.008;5.644;2023-08-31T04:50:14;18.00;99.90
45008;DHT22;30743;52.008;5.644;2023-08-31T04:52:40;18.00;99.90
45008;DHT22;30743;52.008;5.644;2023-08-31T04:55:06;18.10;99.90
45008;DHT22;30743;52.008;5.644;2023-08-31T04:57:36;18.20;99.90
45008;DHT22;30743;52.008;5.644;2023-08-31T05:00:02;18.30;99.90
45008;DHT22;30743;52.008;5.644;2023-08-31T05:02:28;18.30;99.90
45008;DHT22;30743;52.008;5.644;2023-08-31T05:04:54;18.20;99.90
45008;DHT22;30743;52.008;5.644;2023-08-31T05:07:19;18.10;99.90
45008;DHT22;30743;52.008;5.644;2023-08-31T05:09:45;18.00;99.90
45008;DHT22;30743;52.008;5.644;2023-08-31T05:12:10;17.70;99.90
45008;DHT22;30743;52.008;5.644;2023-08-31T05:14:36;17.70;99.90
45008;DHT22;30743;52.008;5.644;2023-08-31T05:17:06;17.60;99.90
45008;DHT22;30743;52.008;5.644;2023-08-31T05:19:31;17.60;99.90
45008;DHT22;30743;52.008;5.644;2023-08-31T05:21:57;17.60;99.90
45008;DHT22;30743;52.008;5.644;2023-08-31T05:24:23;17.40;99.90
45008;DHT22;30743;52.008;5.644;2023-08-31T05:26:49;17.50;99.90
45008;DHT22;30743;52.008;5.644;2023-08-31T05:29:15;17.40;99.90
45008;DHT22;30743;52.008;5.644;2023-08-31T05:31:40;17.40;99.90
45008;DHT22;30743;52.008;5.644;2023-08-31T05:34:06;17.20;99.90
45008;DHT22;30743;52.008;5.644;2023-08-31T05:36:31;17.30;99.90
45008;DHT22;30743;52.008;5.644;2023-08-31T05:38:57;17.40;99.90
45008;DHT22;30743;52.008;5.644;2023-08-31T05:41:22;17.50;99.90
45008;DHT22;30743;52.008;5.644;2023-08-31T05:43:48;17.60;99.90
45008;DHT22;30743;52.008;5.644;2023-08-31T05:46:13;17.70;99.90
45008;DHT22;30743;52.008;5.644;2023-08-31T05:48:39;17.80;99.90
45008;DHT22;30743;52.008;5.644;2023-08-31T05:51:04;17.70;99.90
45008;DHT22;30743;52.008;5.644;2023-08-31T05:53:30;17.70;99.90
45008;DHT22;30743;52.008;5.644;2023-08-31T05:55:57;17.70;99.90
45008;DHT22;30743;52.008;5.644;2023-08-31T05:58:30;17.60;99.90
45008;DHT22;30743;52.008;5.644;2023-08-31T06:00:56;17.60;99.90
45008;DHT22;30743;52.008;5.644;2023-08-31T06:03:21;17.80;99.90
45008;DHT22;30743;52.008;5.644;2023-08-31T06:05:47;17.90;99.90
45008;DHT22;30743;52.008;5.644;2023-08-31T06:08:13;17.90;99.90
45008;DHT22;30743;52.008;5.644;2023-08-31T06:10:39;17.70;99.90
45008;DHT22;30743;52.008;5.644;2023-08-31T06:13:04;17.80;99.90
45008;DHT22;30743;52.008;5.644;2023-08-31T06:15:30;17.60;99.90
45008;DHT22;30743;52.008;5.644;2023-08-31T06:17:55;17.60;99.90
45008;DHT22;30743;52.008;5.644;2023-08-31T06:20:21;17.70;99.90
45008;DHT22;30743;52.008;5.644;2023-08-31T06:22:46;17.70;99.90
45008;DHT22;30743;52.008;5.644;2023-08-31T06:25:12;17.90;99.90
45008;DHT22;30743;52.008;5.644;2023-08-31T06:27:42;18.00;99.90
45008;DHT22;30743;52.008;5.644;2023-08-31T06:30:08;18.20;99.90
45008;DHT22;30743;52.008;5.644;2023-08-31T06:32:34;18.40;99.90
45008;DHT22;30743;52.008;5.644;2023-08-31T06:34:59;18.40;99.90
45008;DHT22;30743;52.008;5.644;2023-08-31T06:37:25;18.50;99.90
45008;DHT22;30743;52.008;5.644;2023-08-31T06:39:50;18.50;99.90
45008;DHT22;30743;52.008;5.644;2023-08-31T06:42:16;18.70;99.90
45008;DHT22;30743;52.008;5.644;2023-08-31T06:44:41;18.60;99.90
45008;DHT22;30743;52.008;5.644;2023-08-31T06:47:07;18.70;99.90
45008;DHT22;30743;52.008;5.644;2023-08-31T06:49:33;18.50;99.90
45008;DHT22;30743;52.008;5.644;2023-08-31T06:52:02;18.40;99.90
45008;DHT22;30743;52.008;5.644;2023-08-31T06:54:28;18.20;99.90
45008;DHT22;30743;52.008;5.644;2023-08-31T06:56:53;18.30;99.90
45008;DHT22;30743;52.008;5.644;2023-08-31T06:59:19;18.00;99.90
45008;DHT22;30743;52.008;5.644;2023-08-31T07:01:44;18.00;99.90
45008;DHT22;30743;52.008;5.644;2023-08-31T07:04:10;18.00;99.90
45008;DHT22;30743;52.008;5.644;2023-08-31T07:06:36;17.90;99.90
45008;DHT22;30743;52.008;5.644;2023-08-31T07:09:02;17.60;99.90
45008;DHT22;30743;52.008;5.644;2023-08-31T07:11:30;17.60;99.90
45008;DHT22;30743;52.008;5.644;2023-08-31T07:13:56;17.60;99.90
45008;DHT22;30743;52.008;5.644;2023-08-31T07:16:22;17.70;99.90
45008;DHT22;30743;52.008;5.644;2023-08-31T07:18:48;17.80;99.90
45008;DHT22;30743;52.008;5.644;2023-08-31T07:21:13;17.70;99.90
45008;DHT22;30743;52.008;5.644;2023-08-31T07:23:39;17.80;99.90
45008;DHT22;30743;52.008;5.644;2023-08-31T07:26:04;18.10;99.90
45008;DHT22;30743;52.008;5.644;2023-08-31T07:28:30;18.10;99.90
45008;DHT22;30743;52.008;5.644;2023-08-31T07:31:03;18.40;99.90
45008;DHT22;30743;52.008;5.644;2023-08-31T07:33:30;18.40;99.90
45008;DHT22;30743;52.008;5.644;2023-08-31T07:35:57;18.40;99.90
45008;DHT22;30743;52.008;5.644;2023-08-31T07:38:23;18.20;99.90
45008;DHT22;30743;52.008;5.644;2023-08-31T07:40:49;18.10;99.90
45008;DHT22;30743;52.008;5.644;2023-08-31T07:43:15;18.10;99.90
45008;DHT22;30743;52.008;5.644;2023-08-31T07:45:40;18.10;99.90
45008;DHT22;30743;52.008;5.644;2023-08-31T07:48:06;18.10;99.90
45008;DHT22;30743;52.008;5.644;2023-08-31T07:50:32;18.20;99.90
45008;DHT22;30743;52.008;5.644;2023-08-31T07:52:58;18.20;99.90
45008;DHT22;30743;52.008;5.644;2023-08-31T07:55:23;18.20;99.90
45008;DHT22;30743;52.008;5.644;2023-08-31T07:57:49;18.30;99.90
45008;DHT22;30743;52.008;5.644;2023-08-31T08:00:14;18.50;99.90
45008;DHT22;30743;52.008;5.644;2023-08-31T08:02:40;18.50;99.90
45008;DHT22;30743;52.008;5.644;2023-08-31T08:05:06;18.80;99.90
45008;DHT22;30743;52.008;5.644;2023-08-31T08:07:31;18.90;99.90
45008;DHT22;30743;52.008;5.644;2023-08-31T08:09:57;19.00;99.90
45008;DHT22;30743;52.008;5.644;2023-08-31T08:12:24;19.10;99.90
45008;DHT22;30743;52.008;5.644;2023-08-31T08:14:50;19.20;99.90
45008;DHT22;30743;52.008;5.644;2023-08-31T08:17:16;19.40;99.90
45008;DHT22;30743;52.008;5.644;2023-08-31T08:19:41;19.50;99.90
45008;DHT22;30743;52.008;5.644;2023-08-31T08:22:07;19.70;99.90
45008;DHT22;30743;52.008;5.644;2023-08-31T08:24:32;19.80;99.90
45008;DHT22;30743;52.008;5.644;2023-08-31T08:26:58;19.80;99.90
45008;DHT22;30743;52.008;5.644;2023-08-31T08:29:24;20.10;99.90
45008;DHT22;30743;52.008;5.644;2023-08-31T08:31:50;20.20;99.90
45008;DHT22;30743;52.008;5.644;2023-08-31T08:34:15;20.30;99.90
45008;DHT22;30743;52.008;5.644;2023-08-31T08:36:41;20.40;99.90
45008;DHT22;30743;52.008;5.644;2023-08-31T08:39:06;20.60;99.90
45008;DHT22;30743;52.008;5.644;2023-08-31T08:41:33;20.70;99.90
45008;DHT22;30743;52.008;5.644;2023-08-31T08:44:02;20.90;99.90
45008;DHT22;30743;52.008;5.644;2023-08-31T08:46:31;21.10;99.90
45008;DHT22;30743;52.008;5.644;2023-08-31T08:48:59;21.30;99.90
45008;DHT22;30743;52.008;5.644;2023-08-31T08:51:25;21.50;99.90
45008;DHT22;30743;52.008;5.644;2023-08-31T08:53:52;21.60;99.90
45008;DHT22;30743;52.008;5.644;2023-08-31T08:56:18;21.70;99.90
45008;DHT22;30743;52.008;5.644;2023-08-31T08:58:43;21.90;99.90
45008;DHT22;30743;52.008;5.644;2023-08-31T09:01:09;21.90;99.90
45008;DHT22;30743;52.008;5.644;2023-08-31T09:03:35;21.90;99.90
45008;DHT22;30743;52.008;5.644;2023-08-31T09:06:00;22.20;99.90
45008;DHT22;30743;52.008;5.644;2023-08-31T09:08:33;22.40;99.90
45008;DHT22;30743;52.008;5.644;2023-08-31T09:10:59;22.60;99.90
45008;DHT22;30743;52.008;5.644;2023-08-31T09:13:28;22.70;99.90
45008;DHT22;30743;52.008;5.644;2023-08-31T09:15:55;22.90;99.90
45008;DHT22;30743;52.008;5.644;2023-08-31T09:18:25;23.10;99.90
45008;DHT22;30743;52.008;5.644;2023-08-31T09:20:51;23.30;99.90
45008;DHT22;30743;52.008;5.644;2023-08-31T09:23:17;23.60;99.90
45008;DHT22;30743;52.008;5.644;2023-08-31T09:25:44;23.90;99.90
45008;DHT22;30743;52.008;5.644;2023-08-31T09:28:12;24.10;99.90
45008;DHT22;30743;52.008;5.644;2023-08-31T09:30:37;23.90;99.90
45008;DHT22;30743;52.008;5.644;2023-08-31T09:33:09;23.90;99.90
45008;DHT22;30743;52.008;5.644;2023-08-31T09:35:42;24.10;99.90
45008;DHT22;30743;52.008;5.644;2023-08-31T09:38:11;24.50;99.90
45008;DHT22;30743;52.008;5.644;2023-08-31T09:40:37;24.30;99.90
45008;DHT22;30743;52.008;5.644;2023-08-31T09:43:04;24.70;99.90
45008;DHT22;30743;52.008;5.644;2023-08-31T09:45:30;24.80;99.90
45008;DHT22;30743;52.008;5.644;2023-08-31T09:48:01;24.90;99.90
45008;DHT22;30743;52.008;5.644;2023-08-31T09:50:32;24.90;99.90
45008;DHT22;30743;52.008;5.644;2023-08-31T09:53:09;24.80;99.90
45008;DHT22;30743;52.008;5.644;2023-08-31T09:55:36;24.70;99.90
45008;DHT22;30743;52.008;5.644;2023-08-31T09:58:05;24.70;99.90
45008;DHT22;30743;52.008;5.644;2023-08-31T10:00:32;24.60;99.90
45008;DHT22;30743;52.008;5.644;2023-08-31T10:03:02;24.30;99.90
45008;DHT22;30743;52.008;5.644;2023-08-31T10:05:28;24.20;99.90
45008;DHT22;30743;52.008;5.644;2023-08-31T10:07:54;24.00;99.90
45008;DHT22;30743;52.008;5.644;2023-08-31T10:10:21;24.10;99.90
45008;DHT22;30743;52.008;5.644;2023-08-31T10:12:48;24.30;99.90
45008;DHT22;30743;52.008;5.644;2023-08-31T10:15:16;24.70;99.90
45008;DHT22;30743;52.008;5.644;2023-08-31T10:17:42;24.80;99.90
45008;DHT22;30743;52.008;5.644;2023-08-31T10:20:09;24.90;99.90
45008;DHT22;30743;52.008;5.644;2023-08-31T10:22:36;25.00;99.90
45008;DHT22;30743;52.008;5.644;2023-08-31T10:25:07;24.90;99.90
45008;DHT22;30743;52.008;5.644;2023-08-31T10:27:37;24.90;99.90
45008;DHT22;30743;52.008;5.644;2023-08-31T10:35:52;25.70;99.90
45008;DHT22;30743;52.008;5.644;2023-08-31T10:38:25;25.90;99.90
45008;DHT22;30743;52.008;5.644;2023-08-31T10:41:03;25.90;99.90
45008;DHT22;30743;52.008;5.644;2023-08-31T10:43:49;26.30;99.90
45008;DHT22;30743;52.008;5.644;2023-08-31T10:46:32;26.30;99.90
45008;DHT22;30743;52.008;5.644;2023-08-31T10:49:13;26.30;99.90
45008;DHT22;30743;52.008;5.644;2023-08-31T10:59:22;26.70;99.90
45008;DHT22;30743;52.008;5.644;2023-08-31T11:04:26;27.00;99.90
45008;DHT22;30743;52.008;5.644;2023-08-31T11:07:17;27.10;98.90
45008;DHT22;30743;52.008;5.644;2023-08-31T11:09:45;27.20;99.90
45008;DHT22;30743;52.008;5.644;2023-08-31T11:12:12;27.50;99.90
45008;DHT22;30743;52.008;5.644;2023-08-31T11:14:38;27.70;99.90
45008;DHT22;30743;52.008;5.644;2023-08-31T11:17:04;27.70;97.90
45008;DHT22;30743;52.008;5.644;2023-08-31T11:19:31;28.10;99.20
45008;DHT22;30743;52.008;5.644;2023-08-31T11:21:57;28.20;99.90
45008;DHT22;30743;52.008;5.644;2023-08-31T11:24:23;28.50;97.80
45008;DHT22;30743;52.008;5.644;2023-08-31T11:26:53;28.70;98.20
45008;DHT22;30743;52.008;5.644;2023-08-31T11:29:19;29.10;98.90
45008;DHT22;30743;52.008;5.644;2023-08-31T11:31:44;29.40;98.80
45008;DHT22;30743;52.008;5.644;2023-08-31T11:34:14;29.40;96.20
45008;DHT22;30743;52.008;5.644;2023-08-31T11:36:42;30.30;97.40
45008;DHT22;30743;52.008;5.644;2023-08-31T11:39:08;29.60;94.60
45008;DHT22;30743;52.008;5.644;2023-08-31T11:41:34;29.50;95.60
45008;DHT22;30743;52.008;5.644;2023-08-31T11:44:03;29.70;96.20
45008;DHT22;30743;52.008;5.644;2023-08-31T11:46:29;29.60;93.40
45008;DHT22;30743;52.008;5.644;2023-08-31T11:48:55;29.90;93.10
45008;DHT22;30743;52.008;5.644;2023-08-31T11:51:21;28.90;95.00
45008;DHT22;30743;52.008;5.644;2023-08-31T11:53:47;28.90;93.80
45008;DHT22;30743;52.008;5.644;2023-08-31T11:56:12;28.80;94.10
45008;DHT22;30743;52.008;5.644;2023-08-31T11:58:41;28.50;93.20
45008;DHT22;30743;52.008;5.644;2023-08-31T12:01:18;28.10;93.70
45008;DHT22;30743;52.008;5.644;2023-08-31T12:03:45;28.10;94.20
45008;DHT22;30743;52.008;5.644;2023-08-31T12:06:11;27.90;93.90
45008;DHT22;30743;52.008;5.644;2023-08-31T12:08:37;28.20;95.60
45008;DHT22;30743;52.008;5.644;2023-08-31T12:11:06;28.00;95.30
45008;DHT22;30743;52.008;5.644;2023-08-31T12:13:31;28.40;94.90
45008;DHT22;30743;52.008;5.644;2023-08-31T12:15:58;28.70;94.50
45008;DHT22;30743;52.008;5.644;2023-08-31T12:18:23;28.70;94.30
45008;DHT22;30743;52.008;5.644;2023-08-31T12:20:52;29.20;95.00
45008;DHT22;30743;52.008;5.644;2023-08-31T12:23:18;29.30;92.70
45008;DHT22;30743;52.008;5.644;2023-08-31T12:25:53;29.40;91.50
45008;DHT22;30743;52.008;5.644;2023-08-31T12:28:21;29.30;93.60
45008;DHT22;30743;52.008;5.644;2023-08-31T12:30:54;29.10;92.40
45008;DHT22;30743;52.008;5.644;2023-08-31T12:33:22;28.60;92.80
45008;DHT22;30743;52.008;5.644;2023-08-31T12:35:48;28.60;95.20
45008;DHT22;30743;52.008;5.644;2023-08-31T12:38:14;28.90;94.40
45008;DHT22;30743;52.008;5.644;2023-08-31T12:40:39;28.90;94.00
45008;DHT22;30743;52.008;5.644;2023-08-31T12:43:05;28.40;92.20
45008;DHT22;30743;52.008;5.644;2023-08-31T12:45:31;28.30;93.20
45008;DHT22;30743;52.008;5.644;2023-08-31T12:47:57;28.30;93.20
45008;DHT22;30743;52.008;5.644;2023-08-31T12:50:23;28.60;93.80
45008;DHT22;30743;52.008;5.644;2023-08-31T12:52:48;28.90;94.60
45008;DHT22;30743;52.008;5.644;2023-08-31T12:55:14;29.10;94.90
45008;DHT22;30743;52.008;5.644;2023-08-31T12:57:40;29.10;92.90
45008;DHT22;30743;52.008;5.644;2023-08-31T13:00:10;29.10;92.30
45008;DHT22;30743;52.008;5.644;2023-08-31T13:02:41;29.20;94.00
45008;DHT22;30743;52.008;5.644;2023-08-31T13:05:08;29.40;94.10
45008;DHT22;30743;52.008;5.644;2023-08-31T13:07:36;29.50;93.20
45008;DHT22;30743;52.008;5.644;2023-08-31T13:10:02;29.60;93.00
45008;DHT22;30743;52.008;5.644;2023-08-31T13:12:33;29.70;92.50
45008;DHT22;30743;52.008;5.644;2023-08-31T13:14:59;29.90;94.60
45008;DHT22;30743;52.008;5.644;2023-08-31T13:17:25;30.00;93.80
45008;DHT22;30743;52.008;5.644;2023-08-31T13:19:56;29.80;92.70
45008;DHT22;30743;52.008;5.644;2023-08-31T13:22:23;30.00;93.80
45008;DHT22;30743;52.008;5.644;2023-08-31T13:24:49;30.00;93.80
45008;DHT22;30743;52.008;5.644;2023-08-31T13:27:14;29.90;92.90
45008;DHT22;30743;52.008;5.644;2023-08-31T13:29:41;29.70;92.10
45008;DHT22;30743;52.008;5.644;2023-08-31T13:32:06;29.70;91.00
45008;DHT22;30743;52.008;5.644;2023-08-31T13:34:32;29.30;92.40
45008;DHT22;30743;52.008;5.644;2023-08-31T13:36:58;29.10;91.30
45008;DHT22;30743;52.008;5.644;2023-08-31T13:39:23;28.90;93.70
45008;DHT22;30743;52.008;5.644;2023-08-31T13:41:50;29.00;94.00
45008;DHT22;30743;52.008;5.644;2023-08-31T13:44:17;29.20;93.10
45008;DHT22;30743;52.008;5.644;2023-08-31T13:46:43;29.00;92.60
45008;DHT22;30743;52.008;5.644;2023-08-31T13:49:08;29.40;92.90
45008;DHT22;30743;52.008;5.644;2023-08-31T13:51:34;29.30;92.20
45008;DHT22;30743;52.008;5.644;2023-08-31T13:54:01;29.30;93.30
45008;DHT22;30743;52.008;5.644;2023-08-31T13:56:26;29.40;93.20
45008;DHT22;30743;52.008;5.644;2023-08-31T13:58:52;29.40;91.40
45008;DHT22;30743;52.008;5.644;2023-08-31T14:01:17;28.80;91.40
45008;DHT22;30743;52.008;5.644;2023-08-31T14:03:43;28.60;91.00
45008;DHT22;30743;52.008;5.644;2023-08-31T14:06:08;28.40;92.60
45008;DHT22;30743;52.008;5.644;2023-08-31T14:08:34;28.30;91.90
45008;DHT22;30743;52.008;5.644;2023-08-31T14:10:59;28.40;94.30
45008;DHT22;30743;52.008;5.644;2023-08-31T14:13:25;28.40;94.20
45008;DHT22;30743;52.008;5.644;2023-08-31T14:15:50;28.60;93.40
45008;DHT22;30743;52.008;5.644;2023-08-31T14:18:16;28.70;92.90
45008;DHT22;30743;52.008;5.644;2023-08-31T14:20:41;28.70;92.30
45008;DHT22;30743;52.008;5.644;2023-08-31T14:23:08;28.70;92.60
45008;DHT22;30743;52.008;5.644;2023-08-31T14:25:37;28.90;94.00
45008;DHT22;30743;52.008;5.644;2023-08-31T14:28:04;29.00;92.90
45008;DHT22;30743;52.008;5.644;2023-08-31T14:30:29;29.10;92.30
45008;DHT22;30743;52.008;5.644;2023-08-31T14:32:55;29.00;93.50
45008;DHT22;30743;52.008;5.644;2023-08-31T14:35:21;29.30;93.90
45008;DHT22;30743;52.008;5.644;2023-08-31T14:37:46;29.50;92.60
45008;DHT22;30743;52.008;5.644;2023-08-31T14:40:12;29.40;93.40
45008;DHT22;30743;52.008;5.644;2023-08-31T14:42:37;29.60;92.70
45008;DHT22;30743;52.008;5.644;2023-08-31T14:45:03;29.50;91.50
45008;DHT22;30743;52.008;5.644;2023-08-31T14:47:29;29.20;91.70
45008;DHT22;30743;52.008;5.644;2023-08-31T14:49:55;29.20;92.30
45008;DHT22;30743;52.008;5.644;2023-08-31T14:52:21;29.40;92.70
45008;DHT22;30743;52.008;5.644;2023-08-31T14:54:46;29.40;92.90
45008;DHT22;30743;52.008;5.644;2023-08-31T14:57:12;29.50;92.50
45008;DHT22;30743;52.008;5.644;2023-08-31T14:59:37;29.60;92.60
45008;DHT22;30743;52.008;5.644;2023-08-31T15:02:03;29.50;92.40
45008;DHT22;30743;52.008;5.644;2023-08-31T15:04:31;29.20;92.10
45008;DHT22;30743;52.008;5.644;2023-08-31T15:06:58;29.10;92.60
45008;DHT22;30743;52.008;5.644;2023-08-31T15:09:24;29.20;92.00
45008;DHT22;30743;52.008;5.644;2023-08-31T15:11:49;29.40;93.30
45008;DHT22;30743;52.008;5.644;2023-08-31T15:14:15;29.30;92.20
45008;DHT22;30743;52.008;5.644;2023-08-31T15:16:41;29.20;93.70
45008;DHT22;30743;52.008;5.644;2023-08-31T15:19:07;29.20;92.70
45008;DHT22;30743;52.008;5.644;2023-08-31T15:21:33;29.00;92.40
45008;DHT22;30743;52.008;5.644;2023-08-31T15:23:59;29.00;92.80
45008;DHT22;30743;52.008;5.644;2023-08-31T15:26:24;29.20;92.90
45008;DHT22;30743;52.008;5.644;2023-08-31T15:28:50;29.10;92.70
45008;DHT22;30743;52.008;5.644;2023-08-31T15:31:16;29.20;92.60
45008;DHT22;30743;52.008;5.644;2023-08-31T15:33:42;29.20;93.00
45008;DHT22;30743;52.008;5.644;2023-08-31T15:36:09;29.40;93.00
45008;DHT22;30743;52.008;5.644;2023-08-31T15:38:35;29.40;93.40
45008;DHT22;30743;52.008;5.644;2023-08-31T15:41:03;29.50;92.90
45008;DHT22;30743;52.008;5.644;2023-08-31T15:43:31;29.30;93.00
45008;DHT22;30743;52.008;5.644;2023-08-31T15:45:58;29.40;93.40